createdAt,value
2023-03-05T00:01:56.731Z,4.97
2023-03-05T00:04:23.752Z,4.94
2023-03-05T00:06:51.157Z,4.95
2023-03-05T00:09:17.931Z,4.94
2023-03-05T00:11:44.796Z,4.93
2023-03-05T00:14:12.324Z,4.92
2023-03-05T00:16:39.681Z,4.91
2023-03-05T00:19:06.879Z,4.92
2023-03-05T00:21:41.763Z,4.91
2023-03-05T00:24:15.283Z,4.93
2023-03-05T00:26:42.201Z,4.90
2023-03-05T00:29:10.939Z,4.88
2023-03-05T00:31:38.514Z,4.89
2023-03-05T00:34:12.302Z,4.89
2023-03-05T00:36:52.445Z,4.88
2023-03-05T00:39:21.146Z,4.90
2023-03-05T00:41:47.808Z,4.88
2023-03-05T00:44:14.568Z,4.86
2023-03-05T00:46:41.824Z,4.84
2023-03-05T00:49:08.542Z,4.81
2023-03-05T00:51:35.440Z,4.79
2023-03-05T00:54:03.093Z,4.78
2023-03-05T00:56:29.872Z,4.78
2023-03-05T00:58:56.917Z,4.77
2023-03-05T01:01:24.450Z,4.76
2023-03-05T01:03:51.620Z,4.74
2023-03-05T01:06:19.125Z,4.74
2023-03-05T01:08:46.262Z,4.75
2023-03-05T01:11:13.417Z,4.77
2023-03-05T01:13:40.558Z,4.75
2023-03-05T01:16:07.995Z,4.74
2023-03-05T01:18:35.152Z,4.73
2023-03-05T01:21:02.037Z,4.72
2023-03-05T01:23:28.984Z,4.72
2023-03-05T01:26:00.232Z,4.70
2023-03-05T01:28:28.226Z,4.70
2023-03-05T01:30:55.115Z,4.68
2023-03-05T01:33:21.922Z,4.70
2023-03-05T01:35:49.917Z,4.70
2023-03-05T01:38:17.114Z,4.71
2023-03-05T01:40:44.426Z,4.71
2023-03-05T01:43:11.555Z,4.69
2023-03-05T01:45:39.453Z,4.67
2023-03-05T01:48:06.251Z,4.66
2023-03-05T01:50:33.646Z,4.61
2023-03-05T01:53:04.227Z,4.60
2023-03-05T01:55:34.769Z,4.57
2023-03-05T01:58:08.311Z,4.55
2023-03-05T02:00:40.063Z,4.54
2023-03-05T02:03:10.837Z,4.52
2023-03-05T02:05:39.395Z,4.51
2023-03-05T02:08:09.262Z,4.50
2023-03-05T02:10:42.597Z,4.50
2023-03-05T02:13:12.622Z,4.49
2023-03-05T02:15:39.960Z,4.48
2023-03-05T02:18:08.133Z,4.48
2023-03-05T02:20:54.013Z,4.48
2023-03-05T02:23:22.471Z,4.48
2023-03-05T02:25:49.460Z,4.47
2023-03-05T02:28:31.430Z,4.45
2023-03-05T02:30:58.256Z,4.44
2023-03-05T02:33:25.174Z,4.44
2023-03-05T02:35:52.361Z,4.45
2023-03-05T02:38:21.184Z,4.42
2023-03-05T02:40:48.082Z,4.39
2023-03-05T02:43:14.962Z,4.39
2023-03-05T02:45:41.835Z,4.38
2023-03-05T02:48:08.637Z,4.37
2023-03-05T02:50:36.594Z,4.37
2023-03-05T02:53:03.537Z,4.36
2023-03-05T02:55:30.234Z,4.34
2023-03-05T02:57:57.157Z,4.33
2023-03-05T03:00:24.362Z,4.33
2023-03-05T03:02:51.118Z,4.31
2023-03-05T03:05:18.169Z,4.32
2023-03-05T03:07:44.939Z,4.32
2023-03-05T03:10:12.407Z,4.30
2023-03-05T03:12:40.783Z,4.30
2023-03-05T03:15:09.296Z,4.30
2023-03-05T03:17:37.815Z,4.30
2023-03-05T03:20:07.787Z,4.29
2023-03-05T03:22:34.577Z,4.27
2023-03-05T03:25:02.070Z,4.28
2023-03-05T03:27:28.861Z,4.27
2023-03-05T03:29:55.564Z,4.21
2023-03-05T03:32:22.262Z,4.25
2023-03-05T03:34:49.335Z,4.25
2023-03-05T03:37:16.549Z,4.24
2023-03-05T03:39:43.232Z,4.25
2023-03-05T03:42:10.212Z,4.25
2023-03-05T03:44:36.945Z,4.24
2023-03-05T03:47:03.990Z,4.26
2023-03-05T03:49:30.803Z,4.27
2023-03-05T03:51:58.366Z,4.26
2023-03-05T03:54:25.182Z,4.24
2023-03-05T03:56:52.778Z,4.23
2023-03-05T03:59:19.719Z,4.24
2023-03-05T04:01:46.448Z,4.23
2023-03-05T04:04:14.092Z,4.23
2023-03-05T04:06:41.288Z,4.23
2023-03-05T04:09:08.437Z,4.21
2023-03-05T04:11:36.339Z,4.20
2023-03-05T04:14:03.775Z,4.22
2023-03-05T04:16:30.506Z,4.21
2023-03-05T04:18:58.070Z,4.19
2023-03-05T04:21:25.000Z,4.19
2023-03-05T04:23:51.648Z,4.19
2023-03-05T04:26:18.571Z,4.19
2023-03-05T04:28:45.232Z,4.18
2023-03-05T04:31:11.973Z,4.17
2023-03-05T04:33:38.813Z,4.16
2023-03-05T04:36:07.213Z,4.17
2023-03-05T04:38:33.915Z,4.16
2023-03-05T04:41:01.054Z,4.16
2023-03-05T04:43:28.010Z,4.14
2023-03-05T04:45:55.361Z,4.14
2023-03-05T04:48:22.373Z,4.14
2023-03-05T04:50:49.184Z,4.11
2023-03-05T04:53:15.964Z,4.17
2023-03-05T04:55:43.687Z,4.14
2023-03-05T04:58:10.479Z,4.16
2023-03-05T05:00:37.219Z,4.14
2023-03-05T05:03:04.084Z,4.14
2023-03-05T05:05:30.895Z,4.14
2023-03-05T05:07:58.773Z,4.15
2023-03-05T05:10:26.804Z,4.15
2023-03-05T05:12:53.741Z,4.16
2023-03-05T05:15:21.040Z,4.17
2023-03-05T05:17:48.058Z,4.17
2023-03-05T05:20:16.130Z,4.15
2023-03-05T05:22:43.144Z,4.16
2023-03-05T05:25:10.983Z,4.13
2023-03-05T05:27:39.249Z,4.10
2023-03-05T05:30:06.518Z,4.09
2023-03-05T05:32:34.376Z,4.11
2023-03-05T05:35:01.243Z,4.09
2023-03-05T05:37:28.028Z,4.09
2023-03-05T05:39:55.300Z,4.10
2023-03-05T05:42:23.769Z,4.10
2023-03-05T05:44:53.855Z,4.08
2023-03-05T05:47:22.053Z,4.07
2023-03-05T05:49:48.749Z,4.07
2023-03-05T05:52:15.506Z,4.07
2023-03-05T05:54:42.691Z,4.03
2023-03-05T05:57:09.365Z,4.04
2023-03-05T05:59:37.186Z,4.04
2023-03-05T06:02:04.877Z,4.05
2023-03-05T06:04:31.696Z,4.05
2023-03-05T06:06:58.864Z,4.04
2023-03-05T06:09:26.282Z,4.02
2023-03-05T06:11:53.073Z,4.03
2023-03-05T06:14:19.763Z,4.01
2023-03-05T06:16:47.086Z,4.01
2023-03-05T06:19:15.219Z,4.03
2023-03-05T06:21:43.611Z,4.01
2023-03-05T06:24:10.861Z,4.01
2023-03-05T06:26:37.815Z,4.01
2023-03-05T06:29:04.728Z,4.01
2023-03-05T06:31:31.723Z,4.01
2023-03-05T06:34:01.444Z,4.01
2023-03-05T06:36:29.159Z,4.00
2023-03-05T06:38:56.924Z,3.99
2023-03-05T06:41:26.884Z,4.01
2023-03-05T06:43:54.742Z,4.01
2023-03-05T06:46:23.235Z,4.01
2023-03-05T06:48:51.328Z,4.01
2023-03-05T06:51:25.127Z,4.02
2023-03-05T06:53:52.873Z,4.01
2023-03-05T06:56:20.843Z,4.04
2023-03-05T06:58:51.400Z,4.03
2023-03-05T07:01:19.602Z,4.02
2023-03-05T07:03:53.147Z,4.02
2023-03-05T07:06:20.748Z,4.02
2023-03-05T07:08:48.550Z,4.01
2023-03-05T07:11:17.925Z,4.02
2023-03-05T07:13:46.922Z,4.02
2023-03-05T07:16:25.294Z,4.03
2023-03-05T07:18:52.597Z,4.03
2023-03-05T07:21:21.782Z,4.03
2023-03-05T07:23:49.157Z,4.04
2023-03-05T07:26:16.695Z,4.05
2023-03-05T07:28:43.909Z,4.08
2023-03-05T07:31:19.421Z,4.10
2023-03-05T07:33:47.599Z,4.11
2023-03-05T07:36:15.079Z,4.11
2023-03-05T07:38:42.101Z,4.14
2023-03-05T07:41:13.713Z,4.16
2023-03-05T07:43:41.241Z,4.19
2023-03-05T07:46:10.516Z,4.20
2023-03-05T07:48:37.539Z,4.20
2023-03-05T07:51:15.246Z,4.23
2023-03-05T07:53:43.925Z,4.26
2023-03-05T07:56:11.686Z,4.26
2023-03-05T07:58:39.142Z,4.30
2023-03-05T08:01:15.197Z,4.33
2023-03-05T08:03:43.134Z,4.37
2023-03-05T08:06:11.811Z,4.42
2023-03-05T08:08:38.757Z,4.43
2023-03-05T08:11:07.914Z,4.45
2023-03-05T08:13:36.114Z,4.48
2023-03-05T08:16:12.426Z,4.54
2023-03-05T08:18:39.467Z,4.57
2023-03-05T08:21:07.081Z,4.59
2023-03-05T08:23:34.724Z,4.60
2023-03-05T08:26:02.893Z,4.62
2023-03-05T08:28:29.594Z,4.66
2023-03-05T08:30:56.508Z,4.64
2023-03-05T08:33:23.296Z,4.67
2023-03-05T08:35:50.017Z,4.69
2023-03-05T08:38:17.301Z,4.71
2023-03-05T08:40:44.877Z,4.64
2023-03-05T08:43:11.687Z,4.62
2023-03-05T08:45:40.190Z,4.67
2023-03-05T08:48:07.142Z,4.72
2023-03-05T08:50:37.035Z,4.76
2023-03-05T08:53:04.890Z,4.82
2023-03-05T08:55:32.680Z,4.87
2023-03-05T08:57:59.558Z,4.92
2023-03-05T09:00:26.392Z,5.00
2023-03-05T09:02:53.156Z,5.10
2023-03-05T09:05:20.262Z,5.19
2023-03-05T09:07:46.980Z,5.23
2023-03-05T09:10:14.896Z,5.23
2023-03-05T09:12:42.722Z,5.20
2023-03-05T09:15:11.859Z,5.16
2023-03-05T09:17:39.607Z,5.18
2023-03-05T09:20:07.185Z,5.09
2023-03-05T09:22:33.981Z,5.07
2023-03-05T09:25:00.744Z,5.06
2023-03-05T09:27:27.400Z,5.10
2023-03-05T09:29:54.129Z,5.16
2023-03-05T09:32:20.902Z,5.19
2023-03-05T09:34:47.594Z,5.36
2023-03-05T09:37:14.353Z,5.53
2023-03-05T09:39:41.350Z,5.73
2023-03-05T09:42:29.657Z,5.95
2023-03-05T09:45:27.486Z,6.06
2023-03-05T09:48:19.237Z,6.18
2023-03-05T09:51:04.659Z,6.19
2023-03-05T09:53:53.994Z,6.21
2023-03-05T09:56:26.860Z,6.16
2023-03-05T09:58:57.942Z,6.22
2023-03-05T10:01:34.783Z,6.32
2023-03-05T10:04:19.111Z,6.40
2023-03-05T10:07:03.416Z,6.47
2023-03-05T10:09:51.354Z,6.51
2023-03-05T10:12:39.128Z,6.52
2023-03-05T10:15:13.295Z,6.55
2023-03-05T10:17:46.202Z,6.57
2023-03-05T10:20:24.845Z,6.61
2023-03-05T10:23:00.268Z,6.65
2023-03-05T10:25:54.703Z,6.71
2023-03-05T10:28:44.177Z,6.81
2023-03-05T10:31:36.685Z,6.99
2023-03-05T10:34:15.518Z,7.11
2023-03-05T10:36:54.056Z,7.19
2023-03-05T10:39:45.629Z,7.21
2023-03-05T10:42:51.272Z,7.27
2023-03-05T10:45:39.165Z,7.44
2023-03-05T10:48:16.577Z,7.51
2023-03-05T10:50:48.641Z,7.65
2023-03-05T10:53:33.564Z,7.72
2023-03-05T10:56:06.013Z,7.67
2023-03-05T10:58:33.473Z,7.71
2023-03-05T11:01:03.962Z,7.73
2023-03-05T11:03:53.091Z,7.67
2023-03-05T11:06:46.053Z,7.79
2023-03-05T11:09:32.557Z,7.90
2023-03-05T11:12:11.891Z,8.02
2023-03-05T11:15:22.793Z,8.19
2023-03-05T11:18:16.143Z,8.46
2023-03-05T11:20:43.086Z,8.51
2023-03-05T11:23:15.831Z,8.64
2023-03-05T11:25:58.356Z,8.73
2023-03-05T11:28:33.210Z,8.77
2023-03-05T11:31:18.857Z,8.70
2023-03-05T11:33:58.034Z,8.64
2023-03-05T11:36:31.164Z,8.63
2023-03-05T11:39:15.162Z,8.72
2023-03-05T11:41:47.968Z,9.06
2023-03-05T11:44:21.649Z,9.26
2023-03-05T11:46:52.800Z,9.61
2023-03-05T11:49:24.601Z,9.64
2023-03-05T11:51:56.479Z,9.56
2023-03-05T11:54:31.685Z,9.39
2023-03-05T11:57:00.718Z,9.20
2023-03-05T11:59:35.888Z,9.03
2023-03-05T12:02:03.954Z,8.91
2023-03-05T12:04:32.791Z,8.88
2023-03-05T12:07:03.273Z,8.78
2023-03-05T12:10:02.338Z,8.74
2023-03-05T12:12:36.407Z,8.64
2023-03-05T12:15:45.699Z,8.77
2023-03-05T12:22:55.245Z,9.00
2023-03-05T12:25:45.245Z,8.93
2023-03-05T12:28:17.813Z,8.99
2023-03-05T12:30:47.288Z,8.83
2023-03-05T12:33:42.842Z,8.72
2023-03-05T12:36:21.481Z,8.69
2023-03-05T12:38:55.422Z,8.66
2023-03-05T12:41:27.424Z,8.65
2023-03-05T12:44:07.084Z,8.57
2023-03-05T12:46:35.988Z,8.43
2023-03-05T12:49:18.097Z,8.29
2023-03-05T12:51:47.319Z,8.46
2023-03-05T12:54:32.754Z,8.92
2023-03-05T12:57:03.827Z,9.39
2023-03-05T12:59:44.127Z,10.30
2023-03-05T13:02:31.239Z,10.26
2023-03-05T13:05:03.108Z,10.48
2023-03-05T13:07:29.913Z,10.72
2023-03-05T13:09:58.809Z,10.34
2023-03-05T13:12:29.300Z,9.88
2023-03-05T13:15:06.945Z,9.49
2023-03-05T13:17:35.344Z,9.17
2023-03-05T13:20:23.478Z,8.91
2023-03-05T13:23:23.144Z,8.70
2023-03-05T13:26:12.205Z,8.47
2023-03-05T13:28:40.132Z,8.32
2023-03-05T13:31:18.753Z,8.23
2023-03-05T13:33:58.053Z,8.24
2023-03-05T13:36:26.876Z,8.35
2023-03-05T13:38:54.478Z,8.51
2023-03-05T13:41:30.710Z,8.65
2023-03-05T13:44:00.094Z,8.92
2023-03-05T13:46:34.259Z,9.91
2023-03-05T13:49:39.402Z,11.28
2023-03-05T13:52:06.739Z,13.26
2023-03-05T13:54:33.941Z,16.52
2023-03-05T13:57:06.844Z,18.26
2023-03-05T13:59:39.011Z,20.29
2023-03-05T14:02:19.886Z,18.23
2023-03-05T14:04:47.492Z,16.36
2023-03-05T14:07:20.371Z,14.85
2023-03-05T14:09:49.132Z,13.82
2023-03-05T14:12:37.230Z,13.14
2023-03-05T14:15:21.590Z,14.22
2023-03-05T14:17:48.580Z,15.83
2023-03-05T14:20:23.161Z,15.84
2023-03-05T14:22:53.230Z,16.71
2023-03-05T14:25:25.669Z,18.74
2023-03-05T14:27:52.612Z,17.42
2023-03-05T14:30:21.988Z,16.10
2023-03-05T14:32:51.212Z,14.76
2023-03-05T14:35:24.615Z,13.67
2023-03-05T14:37:53.531Z,12.91
2023-03-05T14:40:23.718Z,12.82
2023-03-05T14:42:57.745Z,12.28
2023-03-05T14:45:30.153Z,11.78
2023-03-05T14:48:00.200Z,12.57
2023-03-05T14:51:29.619Z,17.51
2023-03-05T14:54:59.036Z,20.46
2023-03-05T14:58:25.505Z,19.45
2023-03-05T15:04:46.601Z,15.62
2023-03-05T15:07:30.051Z,14.80
2023-03-05T15:09:57.381Z,14.29
2023-03-05T15:12:25.048Z,17.72
2023-03-05T15:14:53.132Z,20.13
2023-03-05T15:17:35.695Z,23.27
2023-03-05T15:20:09.329Z,20.22
2023-03-05T15:22:41.969Z,18.51
2023-03-05T15:25:10.451Z,17.01
2023-03-05T15:27:37.738Z,16.09
2023-03-05T15:30:06.859Z,16.20
2023-03-05T15:32:33.843Z,15.42
2023-03-05T15:35:01.015Z,14.49
2023-03-05T15:37:27.868Z,13.98
2023-03-05T15:39:54.523Z,13.56
2023-03-05T15:42:21.251Z,13.06
2023-03-05T15:44:48.114Z,12.88
2023-03-05T15:47:14.834Z,12.59
2023-03-05T15:49:41.784Z,12.50
2023-03-05T15:52:08.635Z,12.95
2023-03-05T15:54:39.922Z,12.90
2023-03-05T15:57:09.791Z,12.65
2023-03-05T15:59:37.030Z,12.57
2023-03-05T16:02:03.938Z,12.44
2023-03-05T16:04:30.925Z,12.20
2023-03-05T16:07:00.729Z,12.05
2023-03-05T16:09:32.030Z,11.92
2023-03-05T16:11:59.044Z,11.91
2023-03-05T16:14:27.934Z,12.11
2023-03-05T16:16:58.258Z,12.04
2023-03-05T16:19:27.067Z,12.00
2023-03-05T16:21:53.719Z,11.99
2023-03-05T16:24:20.568Z,11.95
2023-03-05T16:26:47.456Z,12.01
2023-03-05T16:29:14.754Z,12.02
2023-03-05T16:31:43.365Z,11.91
2023-03-05T16:34:10.186Z,11.62
2023-03-05T16:36:36.942Z,11.39
2023-03-05T16:39:05.398Z,11.12
2023-03-05T16:41:32.695Z,10.89
2023-03-05T16:44:00.110Z,10.69
2023-03-05T16:46:29.274Z,10.51
2023-03-05T16:48:57.921Z,10.34
2023-03-05T16:51:24.983Z,10.21
2023-03-05T16:53:52.152Z,10.11
2023-03-05T16:56:20.552Z,10.02
2023-03-05T16:58:47.698Z,9.95
2023-03-05T17:01:19.421Z,9.86
2023-03-05T17:03:48.808Z,9.84
2023-03-05T17:06:19.843Z,9.85
2023-03-05T17:08:47.831Z,9.88
2023-03-05T17:11:15.531Z,9.97
2023-03-05T17:13:43.268Z,10.09
2023-03-05T17:16:12.982Z,10.16
2023-03-05T17:18:41.538Z,10.19
2023-03-05T17:21:09.348Z,10.14
2023-03-05T17:23:37.077Z,10.09
2023-03-05T17:26:15.892Z,10.05
2023-03-05T17:28:43.462Z,10.02
2023-03-05T17:31:10.405Z,9.97
2023-03-05T17:33:38.502Z,9.95
2023-03-05T17:36:06.178Z,9.88
2023-03-05T17:38:32.817Z,9.72
2023-03-05T17:40:59.523Z,9.57
2023-03-05T17:43:26.616Z,9.36
2023-03-05T17:45:53.345Z,9.22
2023-03-05T17:48:21.324Z,9.13
2023-03-05T17:50:48.594Z,9.04
2023-03-05T17:53:15.341Z,9.00
2023-03-05T17:55:42.747Z,8.95
2023-03-05T17:58:09.666Z,8.91
2023-03-05T18:00:37.286Z,8.84
2023-03-05T18:03:04.624Z,8.74
2023-03-05T18:05:31.594Z,8.64
2023-03-05T18:07:59.177Z,8.52
2023-03-05T18:10:27.075Z,8.44
2023-03-05T18:12:55.156Z,8.38
2023-03-05T18:15:23.698Z,8.34
2023-03-05T18:17:51.186Z,8.27
2023-03-05T18:20:37.462Z,8.24
2023-03-05T18:23:05.865Z,8.20
2023-03-05T18:25:32.756Z,8.17
2023-03-05T18:28:13.304Z,8.18
2023-03-05T18:30:41.313Z,8.17
2023-03-05T18:33:11.790Z,8.20
2023-03-05T18:35:38.711Z,8.21
2023-03-05T18:38:05.476Z,8.21
2023-03-05T18:40:35.985Z,8.20
2023-03-05T18:43:03.653Z,8.15
2023-03-05T18:45:34.254Z,8.10
2023-03-05T18:48:01.064Z,8.13
2023-03-05T18:50:29.652Z,8.15
2023-03-05T18:52:56.691Z,8.18
2023-03-05T18:55:26.639Z,8.22
2023-03-05T18:57:57.076Z,8.25
2023-03-05T19:00:27.296Z,8.26
2023-03-05T19:02:55.128Z,8.27
2023-03-05T19:05:22.310Z,8.27
2023-03-05T19:07:49.537Z,8.26
2023-03-05T19:10:17.826Z,8.29
2023-03-05T19:13:05.756Z,8.30
2023-03-05T19:15:32.802Z,8.30
2023-03-05T19:17:59.683Z,8.30
2023-03-05T19:20:26.498Z,8.29
2023-03-05T19:22:58.063Z,8.28
2023-03-05T19:25:24.965Z,8.26
2023-03-05T19:27:51.812Z,8.26
2023-03-05T19:30:18.831Z,8.23
2023-03-05T19:32:48.389Z,8.21
2023-03-05T19:35:16.978Z,8.17
2023-03-05T19:37:46.196Z,8.10
2023-03-05T19:40:14.659Z,8.04
2023-03-05T19:42:41.528Z,7.97
2023-03-05T19:45:09.154Z,7.89
2023-03-05T19:47:36.269Z,7.80
2023-03-05T19:50:09.467Z,7.72
2023-03-05T19:52:39.198Z,7.67
2023-03-05T19:55:06.701Z,7.63
2023-03-05T19:57:39.160Z,7.62
2023-03-05T20:00:06.613Z,7.63
2023-03-05T20:02:33.438Z,7.64
2023-03-05T20:05:00.663Z,7.66
2023-03-05T20:07:27.495Z,7.66
2023-03-05T20:09:57.023Z,7.67
2023-03-05T20:12:24.524Z,7.69
2023-03-05T20:14:51.584Z,7.69
2023-03-05T20:17:19.733Z,7.70
2023-03-05T20:19:47.112Z,7.70
2023-03-05T20:22:13.933Z,7.69
2023-03-05T20:24:40.666Z,7.67
2023-03-05T20:28:07.279Z,7.65
2023-03-05T20:31:35.098Z,7.61
2023-03-05T20:38:20.954Z,7.53
2023-03-05T20:41:11.495Z,7.51
2023-03-05T20:44:03.689Z,7.48
2023-03-05T20:47:30.189Z,7.47
2023-03-05T20:50:56.883Z,7.45
2023-03-05T20:53:37.402Z,7.43
2023-03-05T20:56:04.488Z,7.44
2023-03-05T20:58:31.439Z,7.43
2023-03-05T21:02:01.231Z,7.43
2023-03-05T21:04:28.105Z,7.42
2023-03-05T21:06:54.827Z,7.40
2023-03-05T21:09:21.787Z,7.38
2023-03-05T21:12:48.285Z,7.38
2023-03-05T21:15:20.544Z,7.37
2023-03-05T21:17:47.619Z,7.35
2023-03-05T21:21:14.180Z,7.33
2023-03-05T21:23:40.930Z,7.29
2023-03-05T21:27:08.044Z,7.28
2023-03-05T21:34:18.529Z,7.23
2023-03-05T21:37:27.370Z,7.20
2023-03-05T21:40:51.619Z,7.17
2023-03-05T21:43:47.194Z,7.16
2023-03-05T21:46:38.129Z,7.14
2023-03-05T21:50:04.652Z,7.14
2023-03-05T21:52:31.754Z,7.11
2023-03-05T21:54:58.608Z,7.10
2023-03-05T21:57:27.213Z,7.11
2023-03-05T21:59:54.267Z,7.09
2023-03-05T22:02:21.576Z,7.06
2023-03-05T22:04:49.192Z,7.04
2023-03-05T22:07:17.109Z,7.04
2023-03-05T22:09:44.117Z,7.04
2023-03-05T22:12:15.188Z,7.03
2023-03-05T22:14:42.152Z,7.02
2023-03-05T22:17:09.034Z,7.03
2023-03-05T22:19:35.756Z,6.98
2023-03-05T22:22:03.046Z,6.98
2023-03-05T22:24:29.848Z,6.96
2023-03-05T22:26:56.541Z,6.94
2023-03-05T22:29:23.415Z,6.93
2023-03-05T22:31:50.195Z,6.93
2023-03-05T22:34:16.865Z,6.91
2023-03-05T22:36:43.728Z,6.91
2023-03-05T22:39:10.415Z,6.89
2023-03-05T22:41:37.058Z,6.88
2023-03-05T22:44:04.123Z,6.86
2023-03-05T22:46:30.929Z,6.82
2023-03-05T22:48:57.688Z,6.79
2023-03-05T22:51:24.797Z,6.76
2023-03-05T22:53:51.489Z,6.75
2023-03-05T22:56:20.203Z,6.76
2023-03-05T22:58:47.300Z,6.76
2023-03-05T23:01:24.481Z,6.73
2023-03-05T23:03:57.445Z,6.72
2023-03-05T23:06:24.715Z,6.71
2023-03-05T23:08:51.441Z,6.70
2023-03-05T23:11:18.356Z,6.69
2023-03-05T23:13:45.063Z,6.67
2023-03-05T23:16:11.741Z,6.70
2023-03-05T23:18:38.617Z,6.70
2023-03-05T23:21:05.582Z,6.71
2023-03-05T23:23:32.243Z,6.71
2023-03-05T23:25:59.288Z,6.70
2023-03-05T23:28:26.144Z,6.70
2023-03-05T23:30:52.862Z,6.68
2023-03-05T23:33:22.375Z,6.68
2023-03-05T23:36:00.390Z,6.67
2023-03-05T23:38:29.856Z,6.66
2023-03-05T23:41:01.112Z,6.65
2023-03-05T23:43:28.237Z,6.66
2023-03-05T23:45:55.314Z,6.66
2023-03-05T23:53:04.577Z,6.65
2023-03-05T23:55:35.043Z,6.68
2023-03-05T23:58:01.993Z,6.67
